Time;durP1;ratioP1;P1;durP2;ratioP2;P2;SDS_P1;SDS_P2;PMS_P1;PMS_P2;Temp;Humidity;BMP_temperature;BMP_pressure;BME280_temperature;BME280_humidity;BME280_pressure;Samples;Min_cycle;Max_cycle;Signal;HPM_P1;HPM_P2
2021/12/01 00:01:31;;;;;;;6.30;3.97;;;;;;;18.39;56.47;100057.38;5069392;28;20436;-69
2021/12/01 00:03:56;;;;;;;8.20;5.17;;;;;;;18.81;52.91;100050.63;5069519;28;20388;-69
2021/12/01 00:06:22;;;;;;;12.80;5.50;;;;;;;19.02;53.11;100036.31;5065208;28;20029;-69
2021/12/01 00:08:47;;;;;;;8.27;4.53;;;;;;;18.75;53.29;100027.19;5032076;28;20016;-69
2021/12/01 00:11:13;;;;;;;8.33;4.27;;;;;;;17.90;57.42;100020.34;5031459;28;20118;-70
2021/12/01 00:13:38;;;;;;;13.40;3.90;;;;;;;19.06;53.20;100014.84;5032660;28;20041;-69
2021/12/01 00:16:04;;;;;;;8.30;4.03;;;;;;;18.76;52.34;99989.16;5033073;28;20024;-69
2021/12/01 00:18:29;;;;;;;5.60;3.17;;;;;;;18.93;54.37;99987.34;5051105;28;20037;-70
2021/12/01 00:20:56;;;;;;;9.13;3.30;;;;;;;17.80;58.55;99991.78;5050273;28;20536;-69
2021/12/01 00:23:22;;;;;;;5.27;3.13;;;;;;;18.95;54.99;99972.25;5052891;28;20043;-69
2021/12/01 00:25:48;;;;;;;5.77;3.10;;;;;;;19.41;51.32;99964.22;5050692;28;20041;-69
2021/12/01 00:28:14;;;;;;;4.87;2.90;;;;;;;19.21;52.07;99956.63;5032871;28;20032;-69
2021/12/01 00:30:42;;;;;;;6.90;3.87;;;;;;;18.85;53.33;99956.03;5040937;28;20059;-69
2021/12/01 00:33:09;;;;;;;10.07;3.13;;;;;;;17.72;58.31;99954.34;5032567;28;20025;-69
2021/12/01 00:35:35;;;;;;;6.07;3.00;;;;;;;18.30;56.71;99938.88;5033005;28;20018;-68
2021/12/01 00:38:00;;;;;;;4.57;2.97;;;;;;;18.35;54.98;99950.03;5032083;28;20187;-70
2021/12/01 00:40:26;;;;;;;3.83;2.40;;;;;;;18.74;54.92;99909.00;5051185;28;20427;-68
2021/12/01 00:42:51;;;;;;;5.73;3.03;;;;;;;18.87;54.05;99911.75;5048654;28;20039;-69
2021/12/01 00:45:19;;;;;;;11.07;3.00;;;;;;;18.82;54.84;99924.41;5032106;28;20024;-69
2021/12/01 00:47:49;;;;;;;4.37;2.20;;;;;;;18.81;53.32;99923.56;5044861;28;20033;-69
2021/12/01 00:50:18;;;;;;;4.00;2.40;;;;;;;19.03;53.68;99917.03;5052756;28;20025;-68
2021/12/01 00:52:43;;;;;;;3.43;2.17;;;;;;;19.18;52.77;99914.41;5053323;28;20040;-69
2021/12/01 00:55:09;;;;;;;5.03;2.70;;;;;;;18.15;56.16;99908.84;5037216;28;20381;-68
2021/12/01 00:57:35;;;;;;;6.50;3.67;;;;;;;17.81;58.30;99903.59;5032686;28;20397;-69
2021/12/01 01:00:01;;;;;;;8.97;3.30;;;;;;;17.77;59.32;99888.84;5032925;28;20029;-68
2021/12/01 01:02:26;;;;;;;5.13;3.37;;;;;;;18.65;54.80;99885.72;5032688;28;20064;-69
2021/12/01 01:04:52;;;;;;;5.40;3.23;;;;;;;17.60;57.34;99887.13;5048157;28;20052;-68
2021/12/01 01:07:17;;;;;;;4.83;2.00;;;;;;;17.57;56.62;99883.78;5050881;28;20441;-69
2021/12/01 01:09:43;;;;;;;2.77;2.23;;;;;;;18.25;57.20;99877.44;5051285;28;20035;-69
2021/12/01 01:17:52;;;;;;;4.50;2.30;;;;;;;17.98;58.61;99854.25;5035209;28;20091;-69
2021/12/01 01:20:17;;;;;;;;;;;;;;;19.22;52.15;99857.63;5034944;28;20049;-69
2021/12/01 01:22:43;;;;;;;4.43;1.73;;;;;;;17.84;58.33;99846.22;5035419;28;19960;-69
2021/12/01 01:25:09;;;;;;;2.47;1.70;;;;;;;17.95;56.19;99841.22;5034740;28;20083;-69
2021/12/01 01:27:35;;;;;;;7.13;2.13;;;;;;;18.51;54.62;99835.41;5049745;28;20025;-68
2021/12/01 01:30:01;;;;;;;2.77;2.30;;;;;;;18.89;54.06;99837.56;5052875;28;20043;-69
2021/12/01 01:32:26;;;;;;;3.33;1.77;;;;;;;18.01;56.65;99855.88;5034842;28;20404;-68
2021/12/01 01:34:52;;;;;;;6.60;2.63;;;;;;;18.35;56.20;99820.41;5058259;28;20384;-69
2021/12/01 01:37:17;;;;;;;6.20;2.97;;;;;;;18.20;55.70;99821.31;5036537;28;20055;-68
2021/12/01 01:39:43;;;;;;;4.17;2.03;;;;;;;17.67;59.21;99807.50;5052937;28;20025;-69
2021/12/01 01:42:08;;;;;;;2.90;2.00;;;;;;;17.52;56.73;99856.78;5033574;28;20580;-69
2021/12/01 01:44:34;;;;;;;2.40;1.90;;;;;;;17.49;59.89;99819.94;5051697;28;20068;-69
2021/12/01 01:46:59;;;;;;;2.53;1.40;;;;;;;18.31;56.41;99803.88;5039429;28;20032;-68
2021/12/01 01:49:43;;;;;;;1.20;1.10;;;;;;;17.46;57.59;99800.72;5033888;28;20036;-68
2021/12/01 01:52:09;;;;;;;5.27;1.33;;;;;;;17.04;58.66;99783.63;5052292;28;20048;-68
2021/12/01 01:54:34;;;;;;;2.03;1.70;;;;;;;17.68;56.52;99780.16;5047893;28;20109;-69
2021/12/01 01:57:00;;;;;;;2.33;1.20;;;;;;;17.79;56.14;99757.47;5052727;28;20037;-68
2021/12/01 01:59:25;;;;;;;4.53;1.80;;;;;;;18.48;54.98;99754.41;5055464;28;20033;-69
2021/12/01 02:01:56;;;;;;;1.90;1.00;;;;;;;17.78;56.99;99768.16;5052162;28;20485;-68
2021/12/01 02:04:22;;;;;;;1.40;1.30;;;;;;;18.17;54.36;99758.03;5033853;28;20052;-69
2021/12/01 02:06:49;;;;;;;0.90;0.90;;;;;;;17.83;55.66;99746.72;5052026;28;20099;-69
2021/12/01 02:09:18;;;;;;;1.37;1.10;;;;;;;18.37;54.16;99755.06;5043252;28;20028;-69
2021/12/01 02:11:44;;;;;;;2.83;0.83;;;;;;;18.12;55.22;99740.63;5064412;28;20013;-69
2021/12/01 02:14:09;;;;;;;0.70;0.70;;;;;;;17.57;59.11;99743.75;5035818;28;20039;-69
2021/12/01 02:16:35;;;;;;;0.77;0.73;;;;;;;17.19;58.18;99723.84;5051669;28;20071;-69
2021/12/01 02:19:01;;;;;;;0.93;0.80;;;;;;;17.68;58.90;99709.69;5048877;28;20114;-69
2021/12/01 02:21:28;;;;;;;1.03;0.93;;;;;;;17.85;57.96;99697.28;5043845;28;20033;-69
2021/12/01 02:24:21;;;;;;;3.53;0.90;;;;;;;18.46;55.31;99685.72;5033159;28;20025;-68
2021/12/01 02:26:49;;;;;;;4.50;1.10;;;;;;;17.14;60.98;99678.38;5031015;28;20480;-68
2021/12/01 02:29:17;;;;;;;0.77;0.77;;;;;;;16.90;60.97;99670.03;5034217;28;20081;-68
2021/12/01 02:31:44;;;;;;;1.47;1.00;;;;;;;16.93;62.38;99657.50;5044625;28;20024;-68
2021/12/01 02:34:17;;;;;;;2.10;1.03;;;;;;;17.62;56.64;99662.47;5052497;28;20388;-69
2021/12/01 02:36:46;;;;;;;1.67;1.40;;;;;;;17.68;58.58;99654.19;5052190;28;20055;-69
2021/12/01 02:39:15;;;;;;;1.73;1.33;;;;;;;17.25;60.31;99654.00;5052081;28;20036;-69
2021/12/01 02:41:41;;;;;;;1.93;1.60;;;;;;;18.23;55.08;99641.28;5053841;28;20029;-68
2021/12/01 02:44:07;;;;;;;1.73;1.50;;;;;;;17.50;57.79;99636.75;5051195;28;20044;-68
2021/12/01 02:46:34;;;;;;;3.63;1.80;;;;;;;18.35;54.37;99627.31;5065301;28;20052;-69
2021/12/01 02:49:00;;;;;;;4.40;1.90;;;;;;;17.74;57.72;99614.19;5035294;28;20032;-69
2021/12/01 02:51:28;;;;;;;2.13;1.90;;;;;;;17.19;58.93;99633.25;5052955;28;20035;-68
2021/12/01 02:53:54;;;;;;;2.83;1.33;;;;;;;17.09;59.72;99622.31;5053358;28;20079;-68
2021/12/01 02:56:23;;;;;;;1.80;1.47;;;;;;;18.00;55.29;99601.25;5042143;28;20024;-69
2021/12/01 02:58:50;;;;;;;3.17;1.37;;;;;;;16.25;62.56;99575.88;5050416;28;20043;-69
2021/12/01 03:01:19;;;;;;;2.00;1.33;;;;;;;17.88;56.15;99588.72;5033274;28;20048;-68
2021/12/01 03:03:45;;;;;;;2.97;1.83;;;;;;;17.80;56.90;99576.84;5033360;28;20051;-68
2021/12/01 03:06:11;;;;;;;2.40;1.60;;;;;;;16.93;58.58;99572.19;5066495;28;20020;-68
2021/12/01 03:08:40;;;;;;;1.43;1.30;;;;;;;18.04;55.78;99557.81;5070353;28;20024;-68
2021/12/01 03:11:06;;;;;;;1.60;1.50;;;;;;;17.55;57.30;99551.00;5052654;28;20558;-68
2021/12/01 03:13:32;;;;;;;2.63;1.70;;;;;;;16.60;61.89;99550.22;5069150;28;20036;-69
2021/12/01 03:15:58;;;;;;;1.90;1.40;;;;;;;16.92;60.38;99536.19;5059565;28;20082;-68
2021/12/01 03:18:23;;;;;;;4.03;1.73;;;;;;;17.44;57.25;99522.59;5033166;28;20041;-68
2021/12/01 03:20:50;;;;;;;3.50;1.90;;;;;;;16.58;59.86;99530.13;5032089;28;20374;-69
2021/12/01 03:23:16;;;;;;;2.90;1.80;;;;;;;17.08;58.16;99521.16;5032796;28;20039;-67
2021/12/01 03:25:42;;;;;;;2.60;1.67;;;;;;;17.24;59.01;99515.84;5047257;28;20032;-69
2021/12/01 03:28:08;;;;;;;2.83;2.23;;;;;;;16.98;58.10;99498.91;5069143;28;20086;-68
2021/12/01 03:30:37;;;;;;;2.10;1.90;;;;;;;16.87;58.69;99472.22;5039772;28;20029;-69
2021/12/01 03:33:04;;;;;;;5.67;2.17;;;;;;;16.10;62.65;99493.19;5052525;28;20345;-69
2021/12/01 03:35:30;;;;;;;2.70;2.23;;;;;;;16.18;62.16;99479.59;5051874;28;20111;-69
2021/12/01 03:37:56;;;;;;;2.13;1.90;;;;;;;15.92;60.78;99477.44;5052580;28;20560;-69
2021/12/01 03:40:21;;;;;;;3.03;2.03;;;;;;;17.07;56.92;99464.03;5038936;28;20122;-68
2021/12/01 03:42:47;;;;;;;3.47;3.00;;;;;;;16.14;61.42;99462.25;5050693;28;20048;-69
2021/12/01 03:45:14;;;;;;;5.23;2.87;;;;;;;16.62;59.94;99463.06;5032351;28;20432;-69
2021/12/01 03:47:40;;;;;;;4.67;2.33;;;;;;;15.98;63.78;99436.75;5032420;28;20037;-68
2021/12/01 03:50:07;;;;;;;4.97;2.33;;;;;;;15.68;62.89;99411.09;5032248;28;20029;-69
2021/12/01 03:52:32;;;;;;;3.17;2.17;;;;;;;16.16;61.09;99424.31;5032870;28;20013;-69
2021/12/01 03:54:58;;;;;;;2.60;2.17;;;;;;;15.83;62.33;99432.31;5031729;28;20135;-69
2021/12/01 03:57:24;;;;;;;3.47;2.60;;;;;;;16.28;62.13;99417.53;5032777;28;20437;-69
2021/12/01 03:59:50;;;;;;;2.73;1.87;;;;;;;16.32;63.12;99421.69;5050140;28;20037;-70
2021/12/01 04:02:15;;;;;;;2.17;1.50;;;;;;;15.52;64.72;99410.19;5050695;28;20043;-68
2021/12/01 04:04:41;;;;;;;3.93;1.50;;;;;;;16.24;62.08;99408.09;5050741;28;20033;-68
2021/12/01 04:07:06;;;;;;;3.77;2.43;;;;;;;16.03;61.64;99386.41;5032120;28;20079;-68
2021/12/01 04:09:34;;;;;;;3.60;1.90;;;;;;;15.88;62.99;99382.81;5049945;28;20104;-68
2021/12/01 04:11:59;;;;;;;9.33;3.00;;;;;;;16.04;61.21;99375.78;5049593;28;20029;-68
2021/12/01 04:14:25;;;;;;;5.20;3.47;;;;;;;16.07;60.16;99367.72;5038553;28;20055;-68
2021/12/01 04:16:50;;;;;;;9.37;3.87;;;;;;;16.10;61.39;99362.25;5032481;28;20040;-68
2021/12/01 04:19:16;;;;;;;11.50;4.07;;;;;;;16.22;58.76;99357.22;5032250;28;20099;-68
2021/12/01 04:21:41;;;;;;;8.07;4.33;;;;;;;16.11;60.55;99344.66;5049672;28;20029;-68
2021/12/01 04:24:07;;;;;;;8.30;4.53;;;;;;;16.16;67.88;99349.69;5053829;28;20430;-68
2021/12/01 04:26:33;;;;;;;12.90;4.63;;;;;;;16.10;64.84;99346.44;5068547;28;20024;-68
2021/12/01 04:29:00;;;;;;;10.33;5.13;;;;;;;16.87;61.41;99335.00;5050715;28;20455;-69
2021/12/01 04:31:29;;;;;;;10.40;5.03;;;;;;;16.31;63.22;99324.19;5069205;28;20051;-68
2021/12/01 04:33:55;;;;;;;9.07;5.03;;;;;;;15.59;66.04;99327.28;5068572;28;20016;-68
2021/12/01 04:36:21;;;;;;;7.67;4.93;;;;;;;16.01;64.91;99327.69;5063226;28;20033;-69
2021/12/01 04:38:46;;;;;;;11.13;5.10;;;;;;;16.42;61.10;99312.09;5049682;28;20071;-69
2021/12/01 04:41:14;;;;;;;10.80;4.73;;;;;;;15.58;64.83;99315.09;5049812;28;20420;-69
2021/12/01 04:43:40;;;;;;;10.60;4.83;;;;;;;16.51;61.35;99320.41;5042577;28;20557;-69
2021/12/01 04:46:06;;;;;;;12.93;5.50;;;;;;;16.71;60.17;99290.22;5030947;28;20617;-69
2021/12/01 04:48:32;;;;;;;7.00;4.43;;;;;;;15.39;67.44;99302.91;5032143;28;20078;-69
2021/12/01 04:50:58;;;;;;;7.63;4.90;;;;;;;15.58;65.11;99288.75;5031145;28;20078;-69
2021/12/01 04:53:25;;;;;;;10.03;5.70;;;;;;;16.28;60.98;99285.72;5049402;28;20021;-68
2021/12/01 04:55:51;;;;;;;11.63;6.13;;;;;;;15.84;64.52;99278.56;5032826;28;20020;-69
2021/12/01 04:58:17;;;;;;;9.47;5.43;;;;;;;15.98;64.42;99275.13;5049261;28;20044;-69
2021/12/01 05:00:43;;;;;;;8.30;4.70;;;;;;;15.13;68.35;99269.25;5032036;28;20033;-69
2021/12/01 05:03:08;;;;;;;8.33;5.00;;;;;;;15.27;67.52;99264.09;5033593;28;20028;-68
2021/12/01 05:05:33;;;;;;;8.73;5.17;;;;;;;14.91;69.92;99262.50;5054610;28;20020;-69
2021/12/01 05:07:59;;;;;;;14.27;6.23;;;;;;;15.97;64.65;99268.19;5050698;28;20021;-68
2021/12/01 05:10:24;;;;;;;12.87;5.87;;;;;;;16.89;59.51;99252.19;5035385;28;20086;-69
2021/12/01 05:12:50;;;;;;;9.57;5.27;;;;;;;15.10;66.22;99252.69;5034830;28;20150;-69
2021/12/01 05:15:15;;;;;;;12.20;6.40;;;;;;;16.39;61.33;99243.75;5053070;28;20040;-69
2021/12/01 05:17:41;;;;;;;9.73;4.63;;;;;;;15.36;66.83;99247.78;5035660;28;20036;-69
2021/12/01 05:20:08;;;;;;;14.60;5.57;;;;;;;15.89;66.33;99226.44;5054099;28;20067;-69
2021/12/01 05:22:34;;;;;;;7.67;5.17;;;;;;;15.46;67.24;99242.03;5043770;28;20061;-69
2021/12/01 05:25:00;;;;;;;7.40;4.23;;;;;;;14.53;72.70;99239.03;5052686;28;20021;-68
2021/12/01 05:27:25;;;;;;;8.23;4.60;;;;;;;15.82;64.69;99218.06;5035537;28;20032;-69
2021/12/01 05:29:51;;;;;;;8.47;4.60;;;;;;;16.79;58.28;99214.94;5053524;28;20036;-69
2021/12/01 05:32:17;;;;;;;7.07;4.70;;;;;;;15.75;65.01;99216.69;5072660;28;20023;-69
2021/12/01 05:34:42;;;;;;;9.10;4.57;;;;;;;15.39;65.69;99221.28;5058840;28;20071;-68
2021/12/01 05:37:08;;;;;;;12.03;4.40;;;;;;;16.34;64.95;99219.44;5042576;28;20460;-68
2021/12/01 05:39:33;;;;;;;9.20;4.40;;;;;;;16.25;61.31;99225.25;5055071;28;20020;-68
2021/12/01 05:41:59;;;;;;;7.37;4.23;;;;;;;16.43;58.89;99203.06;5048577;28;20074;-68
2021/12/01 05:44:25;;;;;;;5.60;3.17;;;;;;;15.76;63.80;99218.38;5034909;28;20036;-69
2021/12/01 05:46:51;;;;;;;4.73;3.30;;;;;;;16.47;62.90;99219.53;5036314;28;20525;-68
2021/12/01 05:49:17;;;;;;;4.17;2.70;;;;;;;15.37;65.13;99223.19;5062170;28;20032;-69
2021/12/01 05:51:43;;;;;;;4.43;2.87;;;;;;;16.27;63.28;99207.56;5043901;28;20392;-68
2021/12/01 05:54:09;;;;;;;3.47;2.43;;;;;;;16.38;62.22;99199.84;5054080;28;20020;-68
2021/12/01 05:56:35;;;;;;;6.13;2.57;;;;;;;17.46;57.00;99203.75;5073006;28;20431;-69
2021/12/01 05:59:00;;;;;;;2.77;2.00;;;;;;;15.66;61.89;99218.06;5053656;28;20207;-68
2021/12/01 06:01:26;;;;;;;3.90;2.30;;;;;;;15.86;61.40;99203.75;5069482;28;20112;-69
2021/12/01 06:03:51;;;;;;;3.30;2.60;;;;;;;15.81;62.75;99204.97;5052188;28;20047;-68
2021/12/01 06:06:17;;;;;;;2.67;2.10;;;;;;;16.09;61.45;99191.88;5036321;28;20074;-70
2021/12/01 06:08:42;;;;;;;5.57;2.10;;;;;;;16.89;61.14;99191.50;5053633;28;20035;-70
2021/12/01 06:11:08;;;;;;;3.10;2.57;;;;;;;16.44;60.91;99185.44;5052484;28;20392;-68
2021/12/01 06:13:34;;;;;;;4.27;2.73;;;;;;;16.81;59.52;99185.81;5052807;28;20106;-68
2021/12/01 06:16:00;;;;;;;3.80;3.03;;;;;;;16.11;59.95;99179.47;5052931;28;20391;-68
2021/12/01 06:18:25;;;;;;;4.07;2.93;;;;;;;17.04;57.15;99168.59;5044795;28;20083;-69
2021/12/01 06:20:50;;;;;;;2.60;2.30;;;;;;;15.67;60.43;99159.16;5033849;28;20069;-70
2021/12/01 06:23:16;;;;;;;5.03;2.50;;;;;;;17.32;56.81;99169.44;5052727;28;20120;-68
2021/12/01 06:25:41;;;;;;;4.97;2.20;;;;;;;16.87;58.33;99158.19;5051725;28;20028;-69
2021/12/01 06:28:07;;;;;;;2.87;2.03;;;;;;;17.20;57.04;99150.00;5051591;28;20090;-68
2021/12/01 06:30:35;;;;;;;3.10;2.17;;;;;;;17.38;56.14;99142.66;5051648;28;20036;-68
2021/12/01 06:33:01;;;;;;;3.13;2.50;;;;;;;17.27;55.29;99147.81;5052615;28;20111;-70
2021/12/01 06:35:26;;;;;;;3.90;2.53;;;;;;;17.02;58.25;99149.38;5068711;28;20041;-68
2021/12/01 06:37:54;;;;;;;4.57;2.77;;;;;;;16.93;58.52;99147.31;5032860;28;20024;-68
2021/12/01 06:40:20;;;;;;;3.23;2.10;;;;;;;16.47;59.44;99150.13;5033865;28;20047;-71
2021/12/01 06:42:45;;;;;;;2.77;2.27;;;;;;;17.19;57.32;99131.63;5033694;28;20028;-70
2021/12/01 06:45:11;;;;;;;2.30;1.97;;;;;;;16.29;59.81;99129.22;5046955;28;20046;-70
2021/12/01 06:47:39;;;;;;;2.87;2.20;;;;;;;15.82;62.81;99133.75;5041180;28;20028;-70
2021/12/01 06:50:06;;;;;;;6.33;2.37;;;;;;;15.37;67.13;99117.88;5071359;28;20028;-70
2021/12/01 06:52:31;;;;;;;3.40;2.50;;;;;;;17.43;57.23;99130.00;5053017;28;20025;-70
2021/12/01 06:54:59;;;;;;;4.33;2.03;;;;;;;16.64;60.01;99120.94;5041025;28;20032;-70
2021/12/01 06:57:25;;;;;;;3.47;2.20;;;;;;;17.04;58.83;99113.16;5064580;28;20028;-70
2021/12/01 06:59:51;;;;;;;5.60;2.17;;;;;;;17.06;57.48;99100.72;5062299;28;20036;-70
2021/12/01 07:02:17;;;;;;;3.47;1.87;;;;;;;17.42;55.63;99101.91;5068918;28;20042;-70
2021/12/01 07:04:46;;;;;;;5.40;2.27;;;;;;;17.89;55.02;99094.38;5052073;28;20066;-70
2021/12/01 07:07:12;;;;;;;4.00;2.30;;;;;;;17.22;56.71;99105.00;5051915;28;20032;-70
2021/12/01 07:09:38;;;;;;;2.50;2.27;;;;;;;17.64;55.84;99103.13;5052475;28;20036;-70
2021/12/01 07:12:04;;;;;;;4.30;2.30;;;;;;;17.13;56.78;99080.91;5070197;28;20032;-70
2021/12/01 07:14:30;;;;;;;3.10;2.33;;;;;;;16.19;61.43;99091.19;5053202;28;20086;-70
2021/12/01 07:16:55;;;;;;;3.67;2.60;;;;;;;17.28;58.22;99079.06;5044842;28;20439;-70
2021/12/01 07:19:21;;;;;;;2.23;2.00;;;;;;;17.05;56.94;99088.47;5044542;28;20446;-70
2021/12/01 07:21:46;;;;;;;5.47;2.47;;;;;;;16.67;58.63;99073.25;5060082;28;20055;-70
2021/12/01 07:24:13;;;;;;;2.90;2.20;;;;;;;16.99;58.85;99075.66;5065907;28;20051;-70
2021/12/01 07:26:39;;;;;;;8.90;2.30;;;;;;;16.96;57.17;99068.78;5061365;28;20077;-70
2021/12/01 07:29:04;;;;;;;3.33;1.77;;;;;;;16.69;59.99;99060.81;5032291;28;20051;-70
2021/12/01 07:31:30;;;;;;;6.40;2.57;;;;;;;17.12;56.74;99066.00;5033256;28;20361;-70
2021/12/01 07:33:56;;;;;;;6.13;2.40;;;;;;;17.70;54.64;99063.06;5049378;28;20041;-70
2021/12/01 07:36:21;;;;;;;4.23;2.63;;;;;;;17.71;54.47;99048.06;5032642;28;20029;-70
2021/12/01 07:38:50;;;;;;;4.47;2.80;;;;;;;17.61;55.58;99063.69;5054665;28;20046;-70
2021/12/01 07:41:16;;;;;;;7.93;2.83;;;;;;;17.54;54.78;99054.50;5069718;28;20024;-71
2021/12/01 07:43:41;;;;;;;11.77;2.20;;;;;;;17.94;53.80;99054.44;5052114;28;20085;-70
2021/12/01 07:46:06;;;;;;;4.70;1.80;;;;;;;16.91;57.09;99047.13;5052137;28;20760;-70
2021/12/01 07:48:32;;;;;;;7.00;1.80;;;;;;;16.69;59.51;99066.09;5036958;28;20045;-70
2021/12/01 07:50:58;;;;;;;6.83;1.90;;;;;;;17.66;56.71;99071.31;5049808;28;20023;-70
2021/12/01 07:53:23;;;;;;;8.70;2.20;;;;;;;16.87;58.96;99071.13;5037521;28;20032;-70
2021/12/01 07:55:49;;;;;;;7.70;3.37;;;;;;;16.70;59.83;99078.31;5051370;28;20032;-69
2021/12/01 07:58:14;;;;;;;6.67;2.30;;;;;;;17.35;56.13;99092.69;5062406;28;20428;-69
2021/12/01 08:00:39;;;;;;;6.57;1.70;;;;;;;16.88;55.69;99064.91;5041365;28;20047;-69
2021/12/01 08:03:05;;;;;;;5.80;1.83;;;;;;;17.88;52.21;99070.72;5038354;28;20033;-69
2021/12/01 08:05:31;;;;;;;19.10;2.60;;;;;;;17.74;52.70;99069.00;5032316;28;20035;-70
2021/12/01 08:07:56;;;;;;;3.07;1.30;;;;;;;16.77;54.99;99084.94;5035261;28;20382;-69
2021/12/01 08:10:22;;;;;;;9.87;1.73;;;;;;;17.66;50.73;99085.38;5045098;28;20050;-69
2021/12/01 08:12:47;;;;;;;8.07;2.73;;;;;;;15.83;56.30;99108.28;5046859;28;20024;-69
2021/12/01 08:15:13;;;;;;;7.20;1.57;;;;;;;16.61;54.12;99110.59;5052613;28;20032;-69
2021/12/01 08:17:39;;;;;;;12.97;1.13;;;;;;;15.60;54.83;99105.16;5064635;28;20111;-70
2021/12/01 08:20:05;;;;;;;5.33;1.00;;;;;;;15.90;55.14;99094.63;5051383;28;20063;-69
2021/12/01 08:22:30;;;;;;;5.80;1.33;;;;;;;16.86;50.01;99091.41;5046156;28;20150;-70
2021/12/01 08:24:59;;;;;;;3.40;0.60;;;;;;;15.96;52.10;99103.94;5068667;28;20037;-69
2021/12/01 08:27:26;;;;;;;11.53;1.70;;;;;;;15.14;55.58;99111.28;5051531;28;20383;-70
2021/12/01 08:29:52;;;;;;;5.23;1.17;;;;;;;14.43;58.51;99092.28;5050366;28;20024;-69
2021/12/01 08:32:18;;;;;;;5.03;0.67;;;;;;;15.66;55.49;99117.97;5051565;28;20035;-70
2021/12/01 08:34:49;;;;;;;6.60;0.80;;;;;;;16.28;52.57;99114.34;5041577;28;20484;-69
2021/12/01 08:37:17;;;;;;;6.77;0.80;;;;;;;16.74;50.05;99106.22;5048056;28;20025;-70
2021/12/01 08:39:42;;;;;;;5.70;0.80;;;;;;;17.01;48.77;99113.34;5043391;28;20044;-70
2021/12/01 08:42:10;;;;;;;12.17;2.13;;;;;;;16.77;50.02;99121.88;5049551;28;20467;-70
2021/12/01 08:44:35;;;;;;;9.20;1.43;;;;;;;16.69;49.90;99129.41;5045054;28;20021;-69
2021/12/01 08:47:01;;;;;;;8.77;0.97;;;;;;;16.33;51.75;99127.25;5053042;28;20040;-69
2021/12/01 08:49:27;;;;;;;3.97;1.00;;;;;;;16.61;51.05;99142.22;5035456;28;20506;-69
2021/12/01 08:51:52;;;;;;;1.83;1.03;;;;;;;15.92;51.44;99144.59;5052542;28;20100;-69
2021/12/01 08:54:18;;;;;;;2.93;0.40;;;;;;;15.59;51.82;99145.59;5056597;28;20029;-69
2021/12/01 08:56:43;;;;;;;4.87;0.97;;;;;;;16.40;49.55;99142.59;5070394;28;20032;-69
2021/12/01 08:59:09;;;;;;;7.80;1.00;;;;;;;16.03;50.89;99146.59;5072311;28;20059;-69
2021/12/01 09:01:34;;;;;;;5.63;1.23;;;;;;;16.36;50.63;99138.47;5055375;28;20097;-69
2021/12/01 09:04:00;;;;;;;4.23;1.47;;;;;;;17.22;47.83;99156.00;5045372;28;20075;-69
2021/12/01 09:06:26;;;;;;;3.83;0.77;;;;;;;16.29;50.07;99152.94;5052131;28;20033;-69
2021/12/01 09:08:51;;;;;;;7.47;0.73;;;;;;;17.56;46.59;99158.25;5034633;28;20523;-69
2021/12/01 09:11:16;;;;;;;5.63;0.93;;;;;;;16.78;50.22;99171.03;5034315;28;20025;-69
2021/12/01 09:13:42;;;;;;;4.97;0.57;;;;;;;16.21;51.65;99171.88;5034977;28;20033;-69
2021/12/01 09:16:07;;;;;;;2.50;0.23;;;;;;;16.11;51.93;99168.94;5052307;28;20033;-69
2021/12/01 09:18:33;;;;;;;1.87;0.37;;;;;;;15.23;53.92;99167.81;5051697;28;20052;-71
2021/12/01 09:20:59;;;;;;;10.67;0.93;;;;;;;16.68;49.63;99169.91;5062864;28;20033;-71
2021/12/01 09:23:25;;;;;;;8.33;0.83;;;;;;;16.50;50.57;99178.94;5034891;28;20036;-72
2021/12/01 09:25:51;;;;;;;1.57;0.83;;;;;;;16.66;48.97;99170.94;5033631;28;20016;-69
2021/12/01 09:28:19;;;;;;;1.87;0.60;;;;;;;16.27;50.99;99175.91;5052882;28;20108;-70
2021/12/01 09:30:46;;;;;;;6.73;0.87;;;;;;;16.22;52.29;99205.16;5034489;28;20021;-71
2021/12/01 09:33:12;;;;;;;5.40;0.70;;;;;;;15.43;54.17;99193.84;5051611;28;20060;-70
2021/12/01 09:35:38;;;;;;;5.50;0.80;;;;;;;17.01;51.26;99202.22;5049475;28;20035;-71
2021/12/01 09:38:03;;;;;;;6.33;1.03;;;;;;;15.75;55.54;99200.88;5045992;28;20028;-71
2021/12/01 09:40:29;;;;;;;1.23;0.80;;;;;;;15.21;58.08;99203.91;5047274;28;20128;-71
2021/12/01 09:42:55;;;;;;;5.13;1.03;;;;;;;15.51;54.55;99198.72;5034615;28;20476;-71
2021/12/01 09:45:24;;;;;;;3.00;1.03;;;;;;;16.20;53.83;99195.69;5052478;28;20029;-69
2021/12/01 09:47:51;;;;;;;2.50;0.90;;;;;;;15.25;55.14;99197.53;4999189;28;20481;-71
2021/12/01 09:50:17;;;;;;;3.13;1.43;;;;;;;15.39;56.41;99204.66;5024669;28;20048;-71
2021/12/01 09:52:43;;;;;;;4.87;1.40;;;;;;;16.23;54.81;99195.50;5041046;28;20028;-71
2021/12/01 09:55:14;;;;;;;4.93;1.10;;;;;;;16.34;52.74;99193.06;5064160;28;20488;-71
2021/12/01 09:58:07;;;;;;;7.43;1.23;;;;;;;16.43;52.49;99203.06;5047884;28;20028;-71
2021/12/01 10:00:35;;;;;;;5.18;1.20;;;;;;;16.90;50.76;99202.94;5034856;28;20054;-69
2021/12/01 10:03:01;;;;;;;4.10;0.63;;;;;;;16.31;51.91;99214.34;5051001;28;20516;-71
2021/12/01 10:05:47;;;;;;;4.40;0.87;;;;;;;17.01;50.34;99211.00;5061182;28;20041;-71
2021/12/01 10:08:37;;;;;;;5.47;0.83;;;;;;;16.03;54.28;99220.38;5039803;28;20028;-72
2021/12/01 10:11:08;;;;;;;5.60;0.87;;;;;;;16.21;53.00;99207.91;5056069;28;20123;-71
2021/12/01 10:13:37;;;;;;;2.37;0.50;;;;;;;16.32;53.84;99216.06;5066785;28;20299;-71
2021/12/01 10:16:05;;;;;;;5.20;1.20;;;;;;;14.76;57.07;99220.28;5042557;28;20028;-71
2021/12/01 10:18:37;;;;;;;4.43;0.67;;;;;;;15.50;56.39;99222.50;5069783;28;20079;-71
2021/12/01 10:21:08;;;;;;;2.25;0.52;;;;;;;16.60;51.91;99203.81;5033024;28;20451;-71
2021/12/01 10:23:36;;;;;;;1.87;0.60;;;;;;;15.53;56.31;99211.78;5035984;28;20033;-72
2021/12/01 10:26:25;;;;;;;1.30;0.47;;;;;;;16.88;51.59;99199.50;5032217;28;20028;-72
2021/12/01 10:28:56;;;;;;;1.97;0.87;;;;;;;18.23;48.21;99192.59;5033433;28;20052;-72
2021/12/01 10:31:46;;;;;;;3.73;0.77;;;;;;;16.36;52.48;99196.47;5069907;28;20020;-70
2021/12/01 10:34:26;;;;;;;6.77;1.10;;;;;;;16.75;51.96;99181.78;5045085;28;20048;-71
2021/12/01 10:37:26;;;;;;;4.37;1.23;;;;;;;17.79;48.37;99185.78;5049531;28;20400;-71
2021/12/01 10:40:08;;;;;;;10.87;0.90;;;;;;;17.35;50.47;99179.84;5070761;28;20025;-71
2021/12/01 10:42:34;;;;;;;6.57;1.17;;;;;;;16.99;51.15;99181.22;5069641;28;20063;-71
2021/12/01 10:45:06;;;;;;;6.33;0.70;;;;;;;16.99;49.09;99178.56;4988552;28;20047;-71
2021/12/01 10:47:41;;;;;;;7.70;1.13;;;;;;;17.30;49.60;99172.19;5043505;28;20465;-72
2021/12/01 10:50:09;;;;;;;11.50;1.50;;;;;;;16.91;50.19;99176.44;5058737;28;20511;-69
2021/12/01 10:52:49;;;;;;;4.97;0.80;;;;;;;17.16;48.76;99179.31;5050490;28;20531;-69
2021/12/01 10:55:17;;;;;;;6.60;0.90;;;;;;;15.86;52.43;99173.94;5068817;28;20381;-70
2021/12/01 10:57:48;;;;;;;8.10;0.87;;;;;;;16.87;48.75;99174.91;5068860;28;20028;-69
2021/12/01 11:00:23;;;;;;;12.80;1.13;;;;;;;15.87;51.38;99178.28;5055930;28;20059;-69
2021/12/01 11:02:49;;;;;;;4.80;0.80;;;;;;;16.64;48.93;99178.97;5060484;28;20046;-69
2021/12/01 11:05:41;;;;;;;8.23;0.83;;;;;;;16.44;50.37;99178.41;5065900;28;20033;-69
2021/12/01 11:08:16;;;;;;;3.40;0.60;;;;;;;15.55;51.67;99207.25;5038631;28;20047;-72
2021/12/01 11:10:50;;;;;;;5.80;1.50;;;;;;;16.93;47.64;99184.25;5045735;28;20082;-71
2021/12/01 11:13:16;;;;;;;4.30;0.70;;;;;;;16.99;46.61;99178.56;5067040;28;20400;-72
2021/12/01 11:15:51;;;;;;;12.00;1.20;;;;;;;16.52;49.08;99175.28;5059774;28;20028;-72
2021/12/01 11:18:20;;;;;;;9.07;0.83;;;;;;;17.18;46.00;99177.44;5029184;28;20065;-72
2021/12/01 11:20:52;;;;;;;7.60;1.10;;;;;;;16.76;47.91;99194.03;5045511;28;20039;-70
2021/12/01 11:23:22;;;;;;;4.27;0.80;;;;;;;16.62;48.07;99183.47;5048770;28;20107;-69
2021/12/01 11:25:56;;;;;;;10.53;1.07;;;;;;;17.32;45.87;99168.63;5047070;28;20025;-69
2021/12/01 11:28:25;;;;;;;3.30;0.73;;;;;;;16.54;47.08;99175.19;5040503;28;20094;-69
2021/12/01 11:30:54;;;;;;;11.97;1.40;;;;;;;16.23;47.53;99174.41;5036547;28;20029;-70
2021/12/01 11:33:20;;;;;;;2.00;0.63;;;;;;;16.59;46.12;99175.75;5043919;28;20392;-70
2021/12/01 11:35:50;;;;;;;2.00;0.77;;;;;;;17.13;45.18;99175.94;5049574;28;20033;-69
2021/12/01 11:38:16;;;;;;;2.90;0.90;;;;;;;16.38;46.05;99184.03;5037772;28;20033;-70